sensor_id;sensor_type;location;lat;lon;timestamp;P1;durP1;ratioP1;P2;durP2;ratioP2
16197;SDS011;8206;51.440;6.914;2022-08-19T00:00:08;2.08;;;2.00;;
16197;SDS011;8206;51.440;6.914;2022-08-19T00:02:37;2.05;;;1.90;;
16197;SDS011;8206;51.440;6.914;2022-08-19T00:05:04;0.75;;;0.75;;
16197;SDS011;8206;51.440;6.914;2022-08-19T00:07:31;2.75;;;1.83;;
16197;SDS011;8206;51.440;6.914;2022-08-19T00:09:58;1.08;;;1.08;;
16197;SDS011;8206;51.440;6.914;2022-08-19T00:12:25;5.38;;;1.77;;
16197;SDS011;8206;51.440;6.914;2022-08-19T00:14:53;1.83;;;1.70;;
16197;SDS011;8206;51.440;6.914;2022-08-19T00:17:20;2.13;;;2.03;;
16197;SDS011;8206;51.440;6.914;2022-08-19T00:19:47;1.08;;;1.08;;
16197;SDS011;8206;51.440;6.914;2022-08-19T00:22:14;0.85;;;0.85;;
16197;SDS011;8206;51.440;6.914;2022-08-19T00:24:43;1.50;;;1.38;;
16197;SDS011;8206;51.440;6.914;2022-08-19T00:27:10;2.03;;;1.92;;
16197;SDS011;8206;51.440;6.914;2022-08-19T00:29:37;1.00;;;1.00;;
16197;SDS011;8206;51.440;6.914;2022-08-19T00:32:05;2.58;;;1.85;;
16197;SDS011;8206;51.440;6.914;2022-08-19T00:34:32;1.50;;;1.42;;
16197;SDS011;8206;51.440;6.914;2022-08-19T00:36:59;2.42;;;2.33;;
16197;SDS011;8206;51.440;6.914;2022-08-19T00:39:26;1.30;;;1.30;;
16197;SDS011;8206;51.440;6.914;2022-08-19T00:41:53;1.58;;;1.48;;
16197;SDS011;8206;51.440;6.914;2022-08-19T00:44:21;2.38;;;2.28;;
16197;SDS011;8206;51.440;6.914;2022-08-19T00:46:51;9.30;;;1.95;;
16197;SDS011;8206;51.440;6.914;2022-08-19T00:49:20;1.65;;;1.33;;
16197;SDS011;8206;51.440;6.914;2022-08-19T00:51:52;2.13;;;1.83;;
16197;SDS011;8206;51.440;6.914;2022-08-19T00:54:21;1.58;;;1.48;;
16197;SDS011;8206;51.440;6.914;2022-08-19T00:56:48;2.55;;;2.35;;
16197;SDS011;8206;51.440;6.914;2022-08-19T00:59:16;3.13;;;2.42;;
16197;SDS011;8206;51.440;6.914;2022-08-19T01:01:44;1.10;;;1.10;;
16197;SDS011;8206;51.440;6.914;2022-08-19T01:04:12;1.67;;;1.58;;
16197;SDS011;8206;51.440;6.914;2022-08-19T01:06:40;2.15;;;2.05;;
16197;SDS011;8206;51.440;6.914;2022-08-19T01:09:07;2.00;;;1.90;;
16197;SDS011;8206;51.440;6.914;2022-08-19T01:11:37;4.65;;;2.80;;
16197;SDS011;8206;51.440;6.914;2022-08-19T01:14:06;1.77;;;1.67;;
16197;SDS011;8206;51.440;6.914;2022-08-19T01:16:34;3.05;;;2.83;;
16197;SDS011;8206;51.440;6.914;2022-08-19T01:19:02;2.22;;;2.13;;
16197;SDS011;8206;51.440;6.914;2022-08-19T01:21:36;0.90;;;0.90;;
16197;SDS011;8206;51.440;6.914;2022-08-19T01:24:08;1.52;;;1.42;;
16197;SDS011;8206;51.440;6.914;2022-08-19T01:26:37;4.68;;;2.65;;
16197;SDS011;8206;51.440;6.914;2022-08-19T01:29:06;1.30;;;1.30;;
16197;SDS011;8206;51.440;6.914;2022-08-19T01:31:34;1.85;;;1.75;;
16197;SDS011;8206;51.440;6.914;2022-08-19T01:34:04;1.95;;;1.85;;
16197;SDS011;8206;51.440;6.914;2022-08-19T01:36:33;5.78;;;3.30;;
16197;SDS011;8206;51.440;6.914;2022-08-19T01:39:04;2.40;;;2.20;;
16197;SDS011;8206;51.440;6.914;2022-08-19T01:41:35;2.30;;;2.20;;
16197;SDS011;8206;51.440;6.914;2022-08-19T01:44:03;3.03;;;2.78;;
16197;SDS011;8206;51.440;6.914;2022-08-19T01:46:31;1.10;;;1.10;;
16197;SDS011;8206;51.440;6.914;2022-08-19T01:48:58;0.90;;;0.90;;
16197;SDS011;8206;51.440;6.914;2022-08-19T01:51:25;1.60;;;1.58;;
16197;SDS011;8206;51.440;6.914;2022-08-19T01:53:53;2.55;;;2.38;;
16197;SDS011;8206;51.440;6.914;2022-08-19T01:56:19;5.25;;;1.77;;
16197;SDS011;8206;51.440;6.914;2022-08-19T01:58:49;3.72;;;3.42;;
16197;SDS011;8206;51.440;6.914;2022-08-19T02:01:19;2.47;;;2.30;;
16197;SDS011;8206;51.440;6.914;2022-08-19T02:03:46;2.55;;;2.22;;
16197;SDS011;8206;51.440;6.914;2022-08-19T02:06:12;2.30;;;2.10;;
16197;SDS011;8206;51.440;6.914;2022-08-19T02:08:42;2.38;;;2.28;;
16197;SDS011;8206;51.440;6.914;2022-08-19T02:11:17;2.13;;;2.03;;
16197;SDS011;8206;51.440;6.914;2022-08-19T02:13:45;2.10;;;2.00;;
16197;SDS011;8206;51.440;6.914;2022-08-19T02:16:15;3.53;;;3.28;;
16197;SDS011;8206;51.440;6.914;2022-08-19T02:18:42;1.92;;;1.85;;
16197;SDS011;8206;51.440;6.914;2022-08-19T02:21:09;2.35;;;2.25;;
16197;SDS011;8206;51.440;6.914;2022-08-19T02:23:36;2.60;;;2.00;;
16197;SDS011;8206;51.440;6.914;2022-08-19T02:26:03;1.98;;;1.88;;
16197;SDS011;8206;51.440;6.914;2022-08-19T02:28:30;2.35;;;2.25;;
16197;SDS011;8206;51.440;6.914;2022-08-19T02:30:58;3.80;;;3.50;;
16197;SDS011;8206;51.440;6.914;2022-08-19T02:33:27;1.70;;;1.60;;
16197;SDS011;8206;51.440;6.914;2022-08-19T02:35:54;3.25;;;2.97;;
16197;SDS011;8206;51.440;6.914;2022-08-19T02:38:21;2.63;;;2.42;;
16197;SDS011;8206;51.440;6.914;2022-08-19T02:40:55;1.90;;;1.88;;
16197;SDS011;8206;51.440;6.914;2022-08-19T02:43:23;1.20;;;1.20;;
16197;SDS011;8206;51.440;6.914;2022-08-19T02:45:51;2.55;;;2.45;;
16197;SDS011;8206;51.440;6.914;2022-08-19T02:48:20;2.28;;;2.17;;
16197;SDS011;8206;51.440;6.914;2022-08-19T02:50:48;1.95;;;1.83;;
16197;SDS011;8206;51.440;6.914;2022-08-19T02:53:19;4.00;;;3.72;;
16197;SDS011;8206;51.440;6.914;2022-08-19T02:55:48;2.85;;;2.65;;
16197;SDS011;8206;51.440;6.914;2022-08-19T02:58:16;2.92;;;2.83;;
16197;SDS011;8206;51.440;6.914;2022-08-19T03:00:44;2.45;;;2.33;;
16197;SDS011;8206;51.440;6.914;2022-08-19T03:03:12;2.67;;;2.47;;
16197;SDS011;8206;51.440;6.914;2022-08-19T03:05:40;2.85;;;2.65;;
16197;SDS011;8206;51.440;6.914;2022-08-19T03:08:08;3.00;;;2.70;;
16197;SDS011;8206;51.440;6.914;2022-08-19T03:10:41;2.00;;;1.90;;
16197;SDS011;8206;51.440;6.914;2022-08-19T03:13:10;2.40;;;2.30;;
16197;SDS011;8206;51.440;6.914;2022-08-19T03:15:41;2.25;;;2.15;;
16197;SDS011;8206;51.440;6.914;2022-08-19T03:18:09;2.83;;;2.63;;
16197;SDS011;8206;51.440;6.914;2022-08-19T03:20:41;2.42;;;2.33;;
16197;SDS011;8206;51.440;6.914;2022-08-19T03:23:09;3.10;;;2.45;;
16197;SDS011;8206;51.440;6.914;2022-08-19T03:25:38;3.78;;;2.95;;
16197;SDS011;8206;51.440;6.914;2022-08-19T03:28:08;2.10;;;2.00;;
16197;SDS011;8206;51.440;6.914;2022-08-19T03:30:35;2.75;;;2.55;;
16197;SDS011;8206;51.440;6.914;2022-08-19T03:33:02;2.47;;;2.38;;
16197;SDS011;8206;51.440;6.914;2022-08-19T03:35:29;3.45;;;3.20;;
16197;SDS011;8206;51.440;6.914;2022-08-19T03:37:57;1.55;;;1.48;;
16197;SDS011;8206;51.440;6.914;2022-08-19T03:40:24;1.75;;;1.70;;
16197;SDS011;8206;51.440;6.914;2022-08-19T03:42:51;2.45;;;2.35;;
16197;SDS011;8206;51.440;6.914;2022-08-19T03:45:18;1.17;;;1.17;;
16197;SDS011;8206;51.440;6.914;2022-08-19T03:47:45;1.77;;;1.67;;
16197;SDS011;8206;51.440;6.914;2022-08-19T03:50:11;2.28;;;2.17;;
16197;SDS011;8206;51.440;6.914;2022-08-19T03:52:38;2.28;;;2.17;;
16197;SDS011;8206;51.440;6.914;2022-08-19T03:55:07;2.45;;;2.25;;
16197;SDS011;8206;51.440;6.914;2022-08-19T03:57:34;2.10;;;2.00;;
16197;SDS011;8206;51.440;6.914;2022-08-19T04:00:01;4.10;;;3.70;;
16197;SDS011;8206;51.440;6.914;2022-08-19T04:02:31;2.00;;;1.90;;
16197;SDS011;8206;51.440;6.914;2022-08-19T04:04:57;2.30;;;2.20;;
16197;SDS011;8206;51.440;6.914;2022-08-19T04:07:24;1.63;;;1.60;;
16197;SDS011;8206;51.440;6.914;2022-08-19T04:09:51;1.98;;;1.88;;
16197;SDS011;8206;51.440;6.914;2022-08-19T04:12:19;2.10;;;2.00;;
16197;SDS011;8206;51.440;6.914;2022-08-19T04:14:46;1.48;;;1.38;;
16197;SDS011;8206;51.440;6.914;2022-08-19T04:17:13;4.82;;;4.30;;
16197;SDS011;8206;51.440;6.914;2022-08-19T04:19:40;2.00;;;1.90;;
16197;SDS011;8206;51.440;6.914;2022-08-19T04:22:08;5.80;;;2.85;;
16197;SDS011;8206;51.440;6.914;2022-08-19T04:24:35;2.20;;;2.00;;
16197;SDS011;8206;51.440;6.914;2022-08-19T04:27:02;2.22;;;2.13;;
16197;SDS011;8206;51.440;6.914;2022-08-19T04:29:32;3.60;;;3.30;;
16197;SDS011;8206;51.440;6.914;2022-08-19T04:31:59;5.30;;;4.18;;
16197;SDS011;8206;51.440;6.914;2022-08-19T04:34:27;2.35;;;2.25;;
16197;SDS011;8206;51.440;6.914;2022-08-19T04:36:55;3.65;;;2.58;;
16197;SDS011;8206;51.440;6.914;2022-08-19T04:39:24;3.42;;;3.22;;
16197;SDS011;8206;51.440;6.914;2022-08-19T04:42:14;2.38;;;2.13;;
16197;SDS011;8206;51.440;6.914;2022-08-19T04:45:01;3.75;;;2.50;;
16197;SDS011;8206;51.440;6.914;2022-08-19T04:47:29;3.13;;;2.83;;
16197;SDS011;8206;51.440;6.914;2022-08-19T04:49:56;5.18;;;4.68;;
16197;SDS011;8206;51.440;6.914;2022-08-19T04:52:23;4.03;;;2.60;;
16197;SDS011;8206;51.440;6.914;2022-08-19T04:54:50;3.17;;;3.00;;
16197;SDS011;8206;51.440;6.914;2022-08-19T04:57:17;4.30;;;3.92;;
16197;SDS011;8206;51.440;6.914;2022-08-19T04:59:43;3.05;;;2.85;;
16197;SDS011;8206;51.440;6.914;2022-08-19T05:02:12;3.67;;;3.42;;
16197;SDS011;8206;51.440;6.914;2022-08-19T05:04:38;6.22;;;3.53;;
16197;SDS011;8206;51.440;6.914;2022-08-19T05:07:05;3.63;;;3.30;;
16197;SDS011;8206;51.440;6.914;2022-08-19T05:09:33;3.10;;;2.35;;
16197;SDS011;8206;51.440;6.914;2022-08-19T05:12:00;1.95;;;1.90;;
16197;SDS011;8206;51.440;6.914;2022-08-19T05:14:28;3.13;;;2.92;;
16197;SDS011;8206;51.440;6.914;2022-08-19T05:16:54;2.75;;;2.65;;
16197;SDS011;8206;51.440;6.914;2022-08-19T05:19:23;3.10;;;2.92;;
16197;SDS011;8206;51.440;6.914;2022-08-19T05:22:07;3.78;;;3.58;;
16197;SDS011;8206;51.440;6.914;2022-08-19T05:24:51;3.40;;;3.20;;
16197;SDS011;8206;51.440;6.914;2022-08-19T05:27:18;3.42;;;3.28;;
16197;SDS011;8206;51.440;6.914;2022-08-19T05:29:45;3.42;;;3.20;;
16197;SDS011;8206;51.440;6.914;2022-08-19T05:32:11;6.75;;;4.30;;
16197;SDS011;8206;51.440;6.914;2022-08-19T05:34:40;3.85;;;3.58;;
16197;SDS011;8206;51.440;6.914;2022-08-19T05:37:06;3.85;;;3.65;;
16197;SDS011;8206;51.440;6.914;2022-08-19T05:39:35;4.88;;;4.47;;
16197;SDS011;8206;51.440;6.914;2022-08-19T05:42:03;3.80;;;3.60;;
16197;SDS011;8206;51.440;6.914;2022-08-19T05:44:33;5.13;;;4.60;;
16197;SDS011;8206;51.440;6.914;2022-08-19T05:47:03;3.35;;;3.22;;
16197;SDS011;8206;51.440;6.914;2022-08-19T05:49:32;7.03;;;4.80;;
16197;SDS011;8206;51.440;6.914;2022-08-19T05:52:02;6.88;;;3.03;;
16197;SDS011;8206;51.440;6.914;2022-08-19T05:54:30;5.07;;;3.50;;
16197;SDS011;8206;51.440;6.914;2022-08-19T05:56:57;3.00;;;2.88;;
16197;SDS011;8206;51.440;6.914;2022-08-19T05:59:26;4.63;;;4.32;;
16197;SDS011;8206;51.440;6.914;2022-08-19T06:01:53;3.88;;;3.67;;
16197;SDS011;8206;51.440;6.914;2022-08-19T06:04:22;4.20;;;4.00;;
16197;SDS011;8206;51.440;6.914;2022-08-19T06:06:51;4.90;;;4.60;;
16197;SDS011;8206;51.440;6.914;2022-08-19T06:09:21;3.75;;;3.47;;
16197;SDS011;8206;51.440;6.914;2022-08-19T06:11:48;11.10;;;5.03;;
16197;SDS011;8206;51.440;6.914;2022-08-19T06:14:19;4.00;;;3.80;;
16197;SDS011;8206;51.440;6.914;2022-08-19T06:16:47;4.20;;;3.90;;
16197;SDS011;8206;51.440;6.914;2022-08-19T06:19:16;5.75;;;5.38;;
16197;SDS011;8206;51.440;6.914;2022-08-19T06:21:45;6.85;;;6.25;;
16197;SDS011;8206;51.440;6.914;2022-08-19T06:24:14;5.60;;;5.07;;
16197;SDS011;8206;51.440;6.914;2022-08-19T06:26:45;4.18;;;3.90;;
16197;SDS011;8206;51.440;6.914;2022-08-19T06:29:14;6.30;;;5.80;;
16197;SDS011;8206;51.440;6.914;2022-08-19T06:31:43;5.32;;;4.95;;
16197;SDS011;8206;51.440;6.914;2022-08-19T06:34:11;7.53;;;6.95;;
16197;SDS011;8206;51.440;6.914;2022-08-19T06:36:40;5.53;;;5.07;;
16197;SDS011;8206;51.440;6.914;2022-08-19T06:39:09;7.85;;;7.28;;
16197;SDS011;8206;51.440;6.914;2022-08-19T06:41:38;5.28;;;4.78;;
16197;SDS011;8206;51.440;6.914;2022-08-19T06:44:09;6.38;;;5.78;;
16197;SDS011;8206;51.440;6.914;2022-08-19T06:46:36;7.43;;;6.75;;
16197;SDS011;8206;51.440;6.914;2022-08-19T06:49:03;9.48;;;8.57;;
16197;SDS011;8206;51.440;6.914;2022-08-19T06:51:31;10.35;;;5.82;;
16197;SDS011;8206;51.440;6.914;2022-08-19T06:53:59;6.53;;;5.93;;
16197;SDS011;8206;51.440;6.914;2022-08-19T06:56:27;5.80;;;5.43;;
16197;SDS011;8206;51.440;6.914;2022-08-19T06:58:58;8.65;;;7.88;;
16197;SDS011;8206;51.440;6.914;2022-08-19T07:01:27;7.38;;;6.78;;
16197;SDS011;8206;51.440;6.914;2022-08-19T07:03:54;7.38;;;6.18;;
16197;SDS011;8206;51.440;6.914;2022-08-19T07:06:21;8.10;;;5.38;;
16197;SDS011;8206;51.440;6.914;2022-08-19T07:08:48;7.35;;;6.75;;
16197;SDS011;8206;51.440;6.914;2022-08-19T07:11:17;7.10;;;6.35;;
16197;SDS011;8206;51.440;6.914;2022-08-19T07:13:45;7.95;;;7.32;;
16197;SDS011;8206;51.440;6.914;2022-08-19T07:16:14;7.38;;;6.68;;
16197;SDS011;8206;51.440;6.914;2022-08-19T07:18:45;9.63;;;7.93;;
16197;SDS011;8206;51.440;6.914;2022-08-19T07:21:14;7.30;;;6.75;;
16197;SDS011;8206;51.440;6.914;2022-08-19T07:23:43;5.93;;;5.43;;
16197;SDS011;8206;51.440;6.914;2022-08-19T07:26:12;7.95;;;7.30;;
16197;SDS011;8206;51.440;6.914;2022-08-19T07:28:40;8.32;;;7.78;;
16197;SDS011;8206;51.440;6.914;2022-08-19T07:31:10;12.27;;;9.77;;
16197;SDS011;8206;51.440;6.914;2022-08-19T07:33:38;9.65;;;8.75;;
16197;SDS011;8206;51.440;6.914;2022-08-19T07:36:07;6.35;;;5.85;;
16197;SDS011;8206;51.440;6.914;2022-08-19T07:38:37;8.43;;;7.80;;
16197;SDS011;8206;51.440;6.914;2022-08-19T07:41:05;9.50;;;8.57;;
16197;SDS011;8206;51.440;6.914;2022-08-19T07:43:32;7.20;;;6.68;;
16197;SDS011;8206;51.440;6.914;2022-08-19T07:45:59;12.65;;;7.40;;
16197;SDS011;8206;51.440;6.914;2022-08-19T07:48:27;7.20;;;6.68;;
16197;SDS011;8206;51.440;6.914;2022-08-19T07:50:54;9.75;;;8.93;;
16197;SDS011;8206;51.440;6.914;2022-08-19T07:53:24;7.32;;;6.70;;
16197;SDS011;8206;51.440;6.914;2022-08-19T07:55:51;8.38;;;7.68;;
16197;SDS011;8206;51.440;6.914;2022-08-19T07:58:19;6.63;;;6.22;;
16197;SDS011;8206;51.440;6.914;2022-08-19T08:00:48;9.55;;;8.82;;
16197;SDS011;8206;51.440;6.914;2022-08-19T08:03:17;8.70;;;7.82;;
16197;SDS011;8206;51.440;6.914;2022-08-19T08:05:45;7.20;;;6.65;;
16197;SDS011;8206;51.440;6.914;2022-08-19T08:08:31;6.00;;;5.50;;
16197;SDS011;8206;51.440;6.914;2022-08-19T08:11:17;7.90;;;6.85;;
16197;SDS011;8206;51.440;6.914;2022-08-19T08:13:45;5.72;;;5.35;;
16197;SDS011;8206;51.440;6.914;2022-08-19T08:16:13;7.82;;;7.22;;
16197;SDS011;8206;51.440;6.914;2022-08-19T08:18:40;9.93;;;6.90;;
16197;SDS011;8206;51.440;6.914;2022-08-19T08:21:08;9.50;;;6.20;;
16197;SDS011;8206;51.440;6.914;2022-08-19T08:23:36;7.72;;;6.43;;
16197;SDS011;8206;51.440;6.914;2022-08-19T08:26:03;7.40;;;5.90;;
16197;SDS011;8206;51.440;6.914;2022-08-19T08:28:30;7.43;;;5.72;;
16197;SDS011;8206;51.440;6.914;2022-08-19T08:30:57;4.43;;;4.18;;
16197;SDS011;8206;51.440;6.914;2022-08-19T08:33:25;6.40;;;5.45;;
16197;SDS011;8206;51.440;6.914;2022-08-19T08:35:53;6.55;;;6.05;;
16197;SDS011;8206;51.440;6.914;2022-08-19T08:38:20;5.38;;;5.07;;
16197;SDS011;8206;51.440;6.914;2022-08-19T08:40:49;6.63;;;6.07;;
16197;SDS011;8206;51.440;6.914;2022-08-19T08:43:23;7.20;;;6.70;;
16197;SDS011;8206;51.440;6.914;2022-08-19T08:45:55;5.20;;;4.72;;
16197;SDS011;8206;51.440;6.914;2022-08-19T08:48:30;7.45;;;6.85;;
16197;SDS011;8206;51.440;6.914;2022-08-19T08:51:03;4.53;;;4.22;;
16197;SDS011;8206;51.440;6.914;2022-08-19T08:53:33;5.03;;;4.43;;
16197;SDS011;8206;51.440;6.914;2022-08-19T08:56:03;6.43;;;3.67;;
16197;SDS011;8206;51.440;6.914;2022-08-19T08:58:33;6.75;;;4.75;;
16197;SDS011;8206;51.440;6.914;2022-08-19T09:01:10;17.15;;;5.75;;
16197;SDS011;8206;51.440;6.914;2022-08-19T09:03:37;7.43;;;6.28;;
16197;SDS011;8206;51.440;6.914;2022-08-19T09:06:11;6.03;;;3.03;;
16197;SDS011;8206;51.440;6.914;2022-08-19T09:08:45;7.22;;;5.00;;
16197;SDS011;8206;51.440;6.914;2022-08-19T09:11:23;5.80;;;4.38;;
16197;SDS011;8206;51.440;6.914;2022-08-19T09:13:58;7.47;;;3.50;;
16197;SDS011;8206;51.440;6.914;2022-08-19T09:16:37;3.53;;;3.33;;
16197;SDS011;8206;51.440;6.914;2022-08-19T09:19:05;2.90;;;2.75;;
16197;SDS011;8206;51.440;6.914;2022-08-19T09:21:33;7.43;;;3.00;;
16197;SDS011;8206;51.440;6.914;2022-08-19T09:24:00;2.58;;;2.40;;
16197;SDS011;8206;51.440;6.914;2022-08-19T09:26:29;2.97;;;2.88;;
16197;SDS011;8206;51.440;6.914;2022-08-19T09:28:57;3.38;;;3.17;;
16197;SDS011;8206;51.440;6.914;2022-08-19T09:31:26;3.30;;;3.00;;
16197;SDS011;8206;51.440;6.914;2022-08-19T09:33:54;4.00;;;3.30;;
16197;SDS011;8206;51.440;6.914;2022-08-19T09:36:22;4.28;;;2.25;;
16197;SDS011;8206;51.440;6.914;2022-08-19T09:38:51;4.13;;;3.78;;
16197;SDS011;8206;51.440;6.914;2022-08-19T09:41:19;3.47;;;3.28;;
16197;SDS011;8206;51.440;6.914;2022-08-19T09:43:51;3.30;;;3.08;;
16197;SDS011;8206;51.440;6.914;2022-08-19T09:46:21;7.97;;;3.58;;
16197;SDS011;8206;51.440;6.914;2022-08-19T09:48:49;3.30;;;3.08;;
16197;SDS011;8206;51.440;6.914;2022-08-19T09:51:17;4.65;;;4.35;;
16197;SDS011;8206;51.440;6.914;2022-08-19T09:53:46;4.38;;;3.60;;
16197;SDS011;8206;51.440;6.914;2022-08-19T09:56:15;4.07;;;3.72;;
16197;SDS011;8206;51.440;6.914;2022-08-19T09:58:44;4.68;;;4.35;;
16197;SDS011;8206;51.440;6.914;2022-08-19T10:01:16;3.78;;;3.47;;
16197;SDS011;8206;51.440;6.914;2022-08-19T10:03:46;5.95;;;5.50;;
16197;SDS011;8206;51.440;6.914;2022-08-19T10:06:16;4.30;;;3.97;;
16197;SDS011;8206;51.440;6.914;2022-08-19T10:08:43;4.38;;;4.18;;
16197;SDS011;8206;51.440;6.914;2022-08-19T10:11:11;5.65;;;5.20;;
16197;SDS011;8206;51.440;6.914;2022-08-19T10:13:41;5.03;;;4.63;;
16197;SDS011;8206;51.440;6.914;2022-08-19T10:16:09;4.97;;;4.75;;
16197;SDS011;8206;51.440;6.914;2022-08-19T10:18:40;8.27;;;5.60;;
16197;SDS011;8206;51.440;6.914;2022-08-19T10:21:08;4.65;;;4.32;;
16197;SDS011;8206;51.440;6.914;2022-08-19T10:23:37;5.32;;;3.95;;
16197;SDS011;8206;51.440;6.914;2022-08-19T10:26:05;4.25;;;3.95;;
16197;SDS011;8206;51.440;6.914;2022-08-19T10:28:33;7.05;;;4.70;;
16197;SDS011;8206;51.440;6.914;2022-08-19T10:31:03;3.75;;;3.55;;
16197;SDS011;8206;51.440;6.914;2022-08-19T10:33:31;4.18;;;3.90;;
16197;SDS011;8206;51.440;6.914;2022-08-19T10:36:00;5.20;;;4.82;;
16197;SDS011;8206;51.440;6.914;2022-08-19T10:38:28;5.57;;;4.10;;
16197;SDS011;8206;51.440;6.914;2022-08-19T10:40:56;4.72;;;4.40;;
16197;SDS011;8206;51.440;6.914;2022-08-19T10:43:23;4.65;;;4.22;;
16197;SDS011;8206;51.440;6.914;2022-08-19T10:45:53;6.55;;;5.88;;
16197;SDS011;8206;51.440;6.914;2022-08-19T10:48:23;5.15;;;4.75;;
16197;SDS011;8206;51.440;6.914;2022-08-19T10:50:50;4.45;;;4.15;;
16197;SDS011;8206;51.440;6.914;2022-08-19T10:53:35;7.60;;;5.82;;
16197;SDS011;8206;51.440;6.914;2022-08-19T10:56:02;4.07;;;3.83;;
16197;SDS011;8206;51.440;6.914;2022-08-19T10:58:47;7.85;;;4.93;;
16197;SDS011;8206;51.440;6.914;2022-08-19T11:01:14;4.95;;;4.43;;
16197;SDS011;8206;51.440;6.914;2022-08-19T11:03:41;6.00;;;4.10;;
16197;SDS011;8206;51.440;6.914;2022-08-19T11:06:10;8.40;;;4.93;;
16197;SDS011;8206;51.440;6.914;2022-08-19T11:08:38;3.28;;;3.17;;
16197;SDS011;8206;51.440;6.914;2022-08-19T11:11:07;3.47;;;2.88;;
16197;SDS011;8206;51.440;6.914;2022-08-19T11:13:35;4.82;;;4.50;;
16197;SDS011;8206;51.440;6.914;2022-08-19T11:16:04;4.75;;;4.45;;
16197;SDS011;8206;51.440;6.914;2022-08-19T11:18:33;3.85;;;3.20;;
16197;SDS011;8206;51.440;6.914;2022-08-19T11:21:05;3.42;;;3.22;;
16197;SDS011;8206;51.440;6.914;2022-08-19T11:23:34;5.28;;;4.85;;
16197;SDS011;8206;51.440;6.914;2022-08-19T11:26:02;3.83;;;3.53;;
16197;SDS011;8206;51.440;6.914;2022-08-19T11:28:29;2.90;;;2.58;;
16197;SDS011;8206;51.440;6.914;2022-08-19T11:30:56;7.97;;;2.92;;
16197;SDS011;8206;51.440;6.914;2022-08-19T11:33:24;2.60;;;2.15;;
16197;SDS011;8206;51.440;6.914;2022-08-19T11:35:51;3.97;;;3.70;;
16197;SDS011;8206;51.440;6.914;2022-08-19T11:38:19;2.80;;;2.60;;
16197;SDS011;8206;51.440;6.914;2022-08-19T11:40:53;2.47;;;2.38;;
16197;SDS011;8206;51.440;6.914;2022-08-19T11:43:25;2.85;;;2.35;;
16197;SDS011;8206;51.440;6.914;2022-08-19T11:45:52;2.08;;;1.95;;
16197;SDS011;8206;51.440;6.914;2022-08-19T11:48:19;1.17;;;1.08;;
16197;SDS011;8206;51.440;6.914;2022-08-19T11:50:47;2.83;;;2.63;;
16197;SDS011;8206;51.440;6.914;2022-08-19T11:53:14;2.05;;;1.95;;
16197;SDS011;8206;51.440;6.914;2022-08-19T11:55:43;1.48;;;1.38;;
16197;SDS011;8206;51.440;6.914;2022-08-19T11:58:10;2.38;;;2.28;;
16197;SDS011;8206;51.440;6.914;2022-08-19T12:00:39;1.00;;;1.00;;
16197;SDS011;8206;51.440;6.914;2022-08-19T12:03:07;1.75;;;1.73;;
16197;SDS011;8206;51.440;6.914;2022-08-19T12:05:36;1.77;;;1.67;;
16197;SDS011;8206;51.440;6.914;2022-08-19T12:08:03;5.43;;;1.88;;
16197;SDS011;8206;51.440;6.914;2022-08-19T12:10:30;2.72;;;2.53;;
16197;SDS011;8206;51.440;6.914;2022-08-19T12:12:57;2.65;;;2.03;;
16197;SDS011;8206;51.440;6.914;2022-08-19T12:15:24;1.65;;;1.52;;
16197;SDS011;8206;51.440;6.914;2022-08-19T12:17:54;4.50;;;2.90;;
16197;SDS011;8206;51.440;6.914;2022-08-19T12:20:22;0.77;;;0.77;;
16197;SDS011;8206;51.440;6.914;2022-08-19T12:22:49;3.15;;;1.80;;
16197;SDS011;8206;51.440;6.914;2022-08-19T12:25:16;1.58;;;1.48;;
16197;SDS011;8206;51.440;6.914;2022-08-19T12:27:43;2.95;;;1.77;;
16197;SDS011;8206;51.440;6.914;2022-08-19T12:30:11;1.08;;;1.08;;
16197;SDS011;8206;51.440;6.914;2022-08-19T12:32:39;2.60;;;1.85;;
16197;SDS011;8206;51.440;6.914;2022-08-19T12:35:08;2.78;;;2.58;;
16197;SDS011;8206;51.440;6.914;2022-08-19T12:37:36;2.30;;;2.20;;
16197;SDS011;8206;51.440;6.914;2022-08-19T12:40:03;1.73;;;1.42;;
16197;SDS011;8206;51.440;6.914;2022-08-19T12:42:31;1.52;;;1.42;;
16197;SDS011;8206;51.440;6.914;2022-08-19T12:44:57;1.65;;;1.55;;
16197;SDS011;8206;51.440;6.914;2022-08-19T12:47:24;1.92;;;1.70;;
16197;SDS011;8206;51.440;6.914;2022-08-19T12:49:52;3.25;;;1.35;;
16197;SDS011;8206;51.440;6.914;2022-08-19T12:52:20;5.15;;;2.30;;
16197;SDS011;8206;51.440;6.914;2022-08-19T12:54:48;1.52;;;1.42;;
16197;SDS011;8206;51.440;6.914;2022-08-19T12:57:15;1.75;;;1.67;;
16197;SDS011;8206;51.440;6.914;2022-08-19T12:59:42;1.73;;;1.63;;
16197;SDS011;8206;51.440;6.914;2022-08-19T13:02:09;2.17;;;1.80;;
16197;SDS011;8206;51.440;6.914;2022-08-19T13:04:36;1.98;;;1.58;;
16197;SDS011;8206;51.440;6.914;2022-08-19T13:07:05;1.98;;;1.35;;
16197;SDS011;8206;51.440;6.914;2022-08-19T13:09:35;9.40;;;2.22;;
16197;SDS011;8206;51.440;6.914;2022-08-19T13:12:02;1.08;;;1.08;;
16197;SDS011;8206;51.440;6.914;2022-08-19T13:14:33;1.05;;;0.93;;
16197;SDS011;8206;51.440;6.914;2022-08-19T13:17:00;2.97;;;1.02;;
16197;SDS011;8206;51.440;6.914;2022-08-19T13:19:27;0.68;;;0.68;;
16197;SDS011;8206;51.440;6.914;2022-08-19T13:21:55;0.98;;;0.98;;
16197;SDS011;8206;51.440;6.914;2022-08-19T13:24:22;1.38;;;1.30;;
16197;SDS011;8206;51.440;6.914;2022-08-19T13:26:51;1.25;;;0.63;;
16197;SDS011;8206;51.440;6.914;2022-08-19T13:29:17;0.77;;;0.77;;
16197;SDS011;8206;51.440;6.914;2022-08-19T13:32:02;1.05;;;0.95;;
16197;SDS011;8206;51.440;6.914;2022-08-19T13:34:55;1.98;;;1.23;;
16197;SDS011;8206;51.440;6.914;2022-08-19T13:37:22;2.38;;;1.50;;
16197;SDS011;8206;51.440;6.914;2022-08-19T13:40:03;1.30;;;1.08;;
16197;SDS011;8206;51.440;6.914;2022-08-19T13:42:32;1.13;;;1.02;;
16197;SDS011;8206;51.440;6.914;2022-08-19T13:44:59;0.75;;;0.75;;
16197;SDS011;8206;51.440;6.914;2022-08-19T13:47:26;1.42;;;1.35;;
16197;SDS011;8206;51.440;6.914;2022-08-19T13:49:53;1.80;;;1.70;;
16197;SDS011;8206;51.440;6.914;2022-08-19T13:52:20;2.08;;;1.73;;
16197;SDS011;8206;51.440;6.914;2022-08-19T13:54:46;1.02;;;1.02;;
16197;SDS011;8206;51.440;6.914;2022-08-19T13:57:13;1.77;;;1.10;;
16197;SDS011;8206;51.440;6.914;2022-08-19T13:59:41;2.10;;;1.38;;
16197;SDS011;8206;51.440;6.914;2022-08-19T14:02:08;1.45;;;1.35;;
16197;SDS011;8206;51.440;6.914;2022-08-19T14:04:35;1.63;;;1.52;;
16197;SDS011;8206;51.440;6.914;2022-08-19T14:07:03;1.48;;;1.38;;
16197;SDS011;8206;51.440;6.914;2022-08-19T14:09:30;0.70;;;0.70;;
16197;SDS011;8206;51.440;6.914;2022-08-19T14:11:57;1.30;;;1.30;;
16197;SDS011;8206;51.440;6.914;2022-08-19T14:14:24;1.50;;;1.08;;
16197;SDS011;8206;51.440;6.914;2022-08-19T14:16:52;1.90;;;1.80;;
16197;SDS011;8206;51.440;6.914;2022-08-19T14:19:19;1.45;;;1.13;;
16197;SDS011;8206;51.440;6.914;2022-08-19T14:21:46;1.65;;;1.17;;
16197;SDS011;8206;51.440;6.914;2022-08-19T14:24:13;2.28;;;2.13;;
16197;SDS011;8206;51.440;6.914;2022-08-19T14:26:40;1.40;;;1.10;;
16197;SDS011;8206;51.440;6.914;2022-08-19T14:29:07;1.58;;;1.45;;
16197;SDS011;8206;51.440;6.914;2022-08-19T14:31:33;0.90;;;0.90;;
16197;SDS011;8206;51.440;6.914;2022-08-19T14:34:02;1.83;;;1.70;;
16197;SDS011;8206;51.440;6.914;2022-08-19T14:36:28;1.20;;;1.20;;
16197;SDS011;8206;51.440;6.914;2022-08-19T14:38:57;1.35;;;1.25;;
16197;SDS011;8206;51.440;6.914;2022-08-19T14:41:25;1.20;;;1.20;;
16197;SDS011;8206;51.440;6.914;2022-08-19T14:43:52;1.60;;;1.52;;
16197;SDS011;8206;51.440;6.914;2022-08-19T14:46:20;1.73;;;1.45;;
16197;SDS011;8206;51.440;6.914;2022-08-19T14:48:50;0.85;;;0.85;;
16197;SDS011;8206;51.440;6.914;2022-08-19T14:51:19;5.95;;;1.58;;
16197;SDS011;8206;51.440;6.914;2022-08-19T14:53:48;7.85;;;2.45;;
16197;SDS011;8206;51.440;6.914;2022-08-19T14:56:15;1.75;;;1.65;;
16197;SDS011;8206;51.440;6.914;2022-08-19T14:58:44;1.90;;;1.80;;
16197;SDS011;8206;51.440;6.914;2022-08-19T15:01:11;2.63;;;2.08;;
16197;SDS011;8206;51.440;6.914;2022-08-19T15:03:39;0.70;;;0.70;;
16197;SDS011;8206;51.440;6.914;2022-08-19T15:06:06;1.90;;;1.50;;
16197;SDS011;8206;51.440;6.914;2022-08-19T15:08:35;4.45;;;2.20;;